• Join FlightAware (Why Join?)
  • Login
  • US Flag 
09:29AM EDT


 

Airport Tracker/Info


-or-


 

Live Flight TrackerFlight Track Log ✈ N425EM ✈ 10-Nov-2013 ✈ KGAD - KHGR

Flight Track Log - Related Links

Times and Time Zones

All times are in EST time to prevent confusion due to time zone crossing. See the N425EM flight status page for this flight to view local times or setup timezone preferences in your user account.

Time Position Orientation Groundspeed Altitude Reporting Facility
EST Latitude Longitude Course Direction KTS MPH feet Rate Location/Type
10:40AM 34.0756 -85.9700 50° Northeast 173 199 5,100  Level Atlanta Center
10:41AM 34.1117 -85.9231 47° Northeast 185 213 6,500 1,560 Climbing Atlanta Center
10:42AM 34.1458 -85.8836 44° Northeast 177 204 8,300 1,740 Climbing Atlanta Center
10:43AM 34.1797 -85.8442 44° Northeast 172 198 10,000 1,560 Climbing Atlanta Center
10:44AM 34.2158 -85.7972 47° Northeast 166 191 11,500 1,440 Climbing Atlanta Center
10:45AM 34.2310 -85.7539 50° Northeast  Level Estimated
10:45AM 34.2539 -85.7553 42° Northeast 177 204 12,900  Level Atlanta Center
10:46AM 34.2839 -85.7106 51° Northeast 171 197 14,100 1,020 Climbing Atlanta Center
10:47AM 34.3200 -85.6686 44° Northeast 179 206 15,000 1,020 Climbing Atlanta Center
10:48AM 34.3581 -85.6139 50° Northeast 197 227 16,200 1,260 Climbing Atlanta Center
10:49AM 34.3964 -85.5619 48° Northeast 208 239 17,600 1,020 Climbing Atlanta Center
10:50AM 34.4389 -85.5072 47° Northeast 208 239 18,300 660 Climbing Atlanta Center
10:51AM 34.4769 -85.4525 50° Northeast 208 239 19,000 600 Climbing Atlanta Center
10:52AM 34.5275 -85.4028 39° Northeast 213 245 19,500 660 Climbing Atlanta Center
10:53AM 34.5700 -85.3431 49° Northeast 219 252 20,400 900 Climbing Atlanta Center
10:54AM 34.6122 -85.2881 47° Northeast 219 252 21,300 900 Climbing Atlanta Center
10:55AM 34.6567 -85.2333 45° Northeast 219 252 22,200 780 Climbing Atlanta Center
10:56AM 34.6989 -85.1808 46° Northeast 219 252 22,900 360 Climbing Atlanta Center
10:57AM 34.7433 -85.1181 49° Northeast 224 258 23,000  Climbing Atlanta Center
10:58AM 34.7919 -85.0581 45° Northeast 235 270 23,000  Level Atlanta Center
10:59AM 34.8383 -84.9928 49° Northeast 243 280 23,000  Level Atlanta Center
11:00AM 34.8889 -84.9250 48° Northeast 248 285 23,000  Level Atlanta Center
11:01AM 34.9372 -84.8597 48° Northeast 248 285 23,000  Level Atlanta Center
11:02AM 34.9858 -84.7917 49° Northeast 258 297 23,000  Level Atlanta Center
11:03AM 35.0342 -84.7261 48° Northeast 258 297 23,000  Level Atlanta Center
11:04AM 35.0844 -84.6606 47° Northeast 258 297 23,000  Level Atlanta Center
11:05AM 35.1328 -84.5925 49° Northeast 263 303 23,000  Level Atlanta Center
11:06AM 35.1833 -84.5267 47° Northeast 263 303 23,000  Level Atlanta Center
11:07AM 35.2336 -84.4583 48° Northeast 263 303 23,000  Level Atlanta Center
11:08AM 35.2839 -84.3900 48° Northeast 263 303 23,000  Level Atlanta Center
11:09AM 35.3319 -84.3214 49° Northeast 263 303 23,000  Level Atlanta Center
11:10AM 35.3822 -84.2553 47° Northeast 263 303 23,000  Level Atlanta Center
11:11AM 35.4303 -84.1867 49° Northeast 263 303 23,000  Level Atlanta Center
11:12AM 35.4825 -84.1203 46° Northeast 263 303 23,000  Level Atlanta Center
11:13AM 35.5325 -84.0489 49° Northeast 263 303 23,000  Level Atlanta Center
11:14AM 35.5828 -83.9825 47° Northeast 263 303 23,000  Level Atlanta Center
11:15AM 35.6306 -83.9136 50° Northeast 263 303 23,000  Level Atlanta Center
11:16AM 35.6806 -83.8444 48° Northeast 263 303 23,000  Level Atlanta Center
11:17AM 35.7306 -83.7753 48° Northeast 263 303 23,000  Level Atlanta Center
11:18AM 35.7783 -83.7086 49° Northeast 263 303 23,000  Level Atlanta Center
11:19AM 35.8281 -83.6392 49° Northeast 263 303 23,000  Level Atlanta Center
11:20AM 35.8758 -83.5722 49° Northeast 263 303 23,000  Level Atlanta Center
11:21AM 35.9278 -83.5053 46° Northeast 263 303 23,000  Level Atlanta Center
11:22AM 35.9733 -83.4333 52° Northeast 263 303 23,000  Level Atlanta Center
11:23AM 36.0272 -83.3636 46° Northeast 268 308 23,000  Level Atlanta Center
11:24AM 36.0747 -83.2911 51° Northeast 268 308 23,000  Level Atlanta Center
11:25AM 36.1244 -83.2239 48° Northeast 263 303 23,000  Level Atlanta Center
11:26AM 36.1719 -83.1514 51° Northeast 263 303 23,000  Level Atlanta Center
11:27AM 36.2256 -83.0786 48° Northeast 268 308 23,000  Level Atlanta Center
11:28AM 36.2731 -83.0086 50° Northeast 268 308 23,000  Level Atlanta Center
11:29AM 36.3244 -82.9383 48° Northeast 268 308 23,000  Level Atlanta Center
11:30AM 36.3739 -82.8681 49° Northeast 268 308 23,000  Level Atlanta Center
11:31AM 36.4233 -82.7950 50° Northeast 268 308 23,000  Level Atlanta Center
11:32AM 36.4725 -82.7247 49° Northeast 268 308 23,000  Level Atlanta Center
11:34AM 36.5564 -82.6075 48° Northeast 272 313 23,000  Level Indianapolis Center
11:35AM 36.6056 -82.5364 49° Northeast 272 313 23,000  Level Indianapolis Center
11:36AM 36.6564 -82.4639 49° Northeast 278 320 23,000  Level Indianapolis Center
11:37AM 36.7056 -82.3897 50° Northeast 278 320 23,000  Level Indianapolis Center
11:38AM 36.7567 -82.3169 49° Northeast 278 320 23,000  Level Indianapolis Center
11:39AM 36.8183 -82.2283 49° Northeast 288 331 23,000  Level Indianapolis Center
11:40AM 36.8708 -82.1569 47° Northeast 282 325 23,000  Level Indianapolis Center
11:41AM 36.9197 -82.0811 51° Northeast 280 322 23,000  Level Indianapolis Center
11:42AM 36.9678 -82.0136 48° Northeast 265 305 23,000  Level Indianapolis Center
11:43AM 37.0153 -81.9419 50° Northeast 268 308 23,000  Level Indianapolis Center
11:44AM 37.0644 -81.8722 49° Northeast 267 307 23,000  Level Indianapolis Center
11:45AM 37.1217 -81.7889 49° Northeast 270 311 23,000  Level Indianapolis Center
11:46AM 37.1703 -81.7172 50° Northeast 270 311 23,000  Level Indianapolis Center
11:47AM 37.2181 -81.6450 50° Northeast 268 308 23,000  Level Indianapolis Center
11:48AM 37.2675 -81.5722 49° Northeast 273 314 23,000  Level Indianapolis Center
11:49AM 37.3181 -81.4950 51° Northeast 275 316 23,000  Level Indianapolis Center
11:50AM 37.3661 -81.4236 50° Northeast 275 316 23,000  Level Indianapolis Center
11:51AM 37.4144 -81.3503 50° Northeast 279 321 23,000  Level Indianapolis Center
11:52AM 37.4717 -81.2642 50° Northeast 277 319 23,000  Level Indianapolis Center
11:54AM 37.5206 -81.1928 49° Northeast 277 319 23,000  Level Indianapolis Center
11:55AM 37.5683 -81.1197 50° Northeast 277 319 23,000  Level Indianapolis Center
11:56AM 37.6167 -81.0467 50° Northeast 278 320 23,000  Level Indianapolis Center
11:57AM 37.6744 -80.9561 51° Northeast 283 326 23,000  Level Indianapolis Center
11:58AM 37.7244 -80.8839 49° Northeast 280 322 23,000  Level Indianapolis Center
11:59AM 37.7719 -80.8078 52° Northeast 282 325 23,000  Level Indianapolis Center
12:00PM 37.8222 -80.7378 48° Northeast 278 320 23,000  Level Indianapolis Center
12:01PM 37.8806 -80.6453 51° Northeast 282 325 23,000  Level Indianapolis Center
12:02PM 37.9306 -80.5717 49° Northeast 277 319 23,000  Level Indianapolis Center
12:03PM 37.9636 -80.5200 51° Northeast 270 311 23,000  Level Washington Center
12:04PM 38.0125 -80.4442 51° Northeast 270 311 23,000  Level Washington Center
12:05PM 38.0636 -80.3683 49° Northeast 270 311 23,000  Level Washington Center
12:06PM 38.1125 -80.2894 52° Northeast 270 311 23,000  Level Washington Center
12:07PM 38.1700 -80.2061 49° Northeast 270 311 23,000  Level Washington Center
12:08PM 38.2169 -80.1269 53° Northeast 275 316 23,000  Level Washington Center
12:09PM 38.2675 -80.0533 49° Northeast 275 316 23,000  Level Washington Center
12:10PM 38.3142 -79.9794 51° Northeast 270 311 23,000  Level Washington Center
12:11PM 38.3647 -79.9056 49° Northeast 270 311 23,000  Level Washington Center
12:12PM 38.4069 -79.8339 53° Northeast 270 311 23,000  Level Washington Center
12:13PM 38.4575 -79.7597 49° Northeast 270 311 23,000  Level Washington Center
12:14PM 38.5039 -79.6856 51° Northeast 270 311 23,000  Level Washington Center
12:15PM 38.5522 -79.6111 50° Northeast 270 311 23,000  Level Washington Center
12:16PM 38.6050 -79.5264 51° Northeast 270 311 23,000 -60 Level Washington Center
12:17PM 38.6533 -79.4492 51° Northeast 275 316 22,900 -600 Descending Washington Center
12:18PM 38.7058 -79.3719 49° Northeast 275 316 21,800 -1,200 Descending Washington Center
12:19PM 38.7583 -79.2975 48° Northeast 275 316 20,500 -1,140 Descending Washington Center
12:20PM 38.8089 -79.2147 52° Northeast 280 322 19,600 -900 Descending Washington Center
12:21PM 38.8589 -79.1428 48° Northeast 280 322 18,800 -840 Descending Washington Center
12:22PM 38.9050 -79.0647 53° Northeast 274 315 17,900 -720 Descending Washington Center
12:23PM 38.9572 -78.9872 49° Northeast 274 315 17,400 -780 Descending Washington Center
12:24PM 39.0072 -78.9119 49° Northeast 274 315 16,400 -960 Descending Washington Center
12:25PM 39.0550 -78.8475 46° Northeast 269 310 15,500 -900 Descending Washington Center
12:26PM 39.1006 -78.7772 50° Northeast 262 302 14,700 -840 Descending Washington Center
12:27PM 39.1461 -78.7042 51° Northeast 256 295 13,900 -960 Descending Washington Center
12:28PM 39.1981 -78.6289 48° Northeast 256 295 12,900 -1,200 Descending Washington Center
12:29PM 39.2461 -78.5478 53° Northeast 269 310 11,600 -1,020 Descending Washington Center
12:30PM 39.2894 -78.4825 49° Northeast 274 315 10,900 -840 Descending Washington Center
12:31PM 39.3347 -78.4117 50° Northeast 262 302 9,900 -1,080 Descending Washington Center
12:32PM 39.3697 -78.3406 58° Northeast 245 282 8,800 -1,080 Descending Washington Center
12:33PM 39.4089 -78.2750 52° Northeast 235 270 7,800 -900 Descending Washington Center
12:34PM 39.4436 -78.2117 55° Northeast 222 255 7,000 -780 Descending Washington Center
12:35PM 39.4719 -78.1428 62° Northeast 217 250 6,300 -660 Descending Washington Center
12:36PM 39.5333 -78.0333 54° Northeast 210 242 5,200 -660 Descending Potomac TRACON
12:37PM 39.5667 -77.9667 57° Northeast 207 238 4,600 -660 Descending Potomac TRACON
12:38PM 39.5833 -77.9000 72° East 207 238 4,000 -660 Descending Potomac TRACON
12:39PM 39.6167 -77.8333 57° Northeast 215 247 3,300 -660 Descending Potomac TRACON
12:40PM 39.6333 -77.7667 72° East 209 241 2,800 -300 Descending Potomac TRACON
12:41PM 39.6500 -77.7167 67° East 187 215 2,800 -360 Level Potomac TRACON
12:42PM 39.6833 -77.6667 49° Northeast 155 178 2,100 -600 Descending Potomac TRACON
12:43PM 39.7000 -77.6667 360° North 130 150 1,600 -600 Descending Potomac TRACON
12:45PM 39.7000 -77.7167 142° Southeast  Level FlightAware Approximate
12:52PM 39.7085 -77.7265 142° Southeast  Level Estimated
12:53PM 39.7085 -77.7265 142° Southeast  Level Estimated